sensor_id;sensor_type;location;lat;lon;timestamp;temperature;humidity
18260;DHT22;9256;52.236;5.712;2023-04-06T00:00:32;2.90;99.90
18260;DHT22;9256;52.236;5.712;2023-04-06T00:02:59;2.90;99.90
18260;DHT22;9256;52.236;5.712;2023-04-06T00:05:26;2.90;99.90
18260;DHT22;9256;52.236;5.712;2023-04-06T00:07:53;2.90;99.90
18260;DHT22;9256;52.236;5.712;2023-04-06T00:10:23;2.80;99.90
18260;DHT22;9256;52.236;5.712;2023-04-06T00:12:50;2.70;99.90
18260;DHT22;9256;52.236;5.712;2023-04-06T00:15:17;2.60;99.90
18260;DHT22;9256;52.236;5.712;2023-04-06T00:17:44;2.60;99.90
18260;DHT22;9256;52.236;5.712;2023-04-06T00:20:11;2.60;99.90
18260;DHT22;9256;52.236;5.712;2023-04-06T00:22:38;2.60;99.90
18260;DHT22;9256;52.236;5.712;2023-04-06T00:25:06;2.60;99.90
18260;DHT22;9256;52.236;5.712;2023-04-06T00:27:34;2.70;99.90
18260;DHT22;9256;52.236;5.712;2023-04-06T00:30:02;2.70;99.90
18260;DHT22;9256;52.236;5.712;2023-04-06T00:32:29;2.70;99.90
18260;DHT22;9256;52.236;5.712;2023-04-06T00:34:56;2.70;99.90
18260;DHT22;9256;52.236;5.712;2023-04-06T00:37:23;2.60;99.90
18260;DHT22;9256;52.236;5.712;2023-04-06T00:39:50;2.60;99.90
18260;DHT22;9256;52.236;5.712;2023-04-06T00:42:18;2.50;99.90
18260;DHT22;9256;52.236;5.712;2023-04-06T00:44:52;2.50;99.90
18260;DHT22;9256;52.236;5.712;2023-04-06T00:47:19;2.40;99.90
18260;DHT22;9256;52.236;5.712;2023-04-06T00:49:47;2.40;99.90
18260;DHT22;9256;52.236;5.712;2023-04-06T00:52:14;2.40;99.90
18260;DHT22;9256;52.236;5.712;2023-04-06T00:54:41;2.40;99.90
18260;DHT22;9256;52.236;5.712;2023-04-06T00:57:08;2.40;99.90
18260;DHT22;9256;52.236;5.712;2023-04-06T00:59:35;2.30;99.90
18260;DHT22;9256;52.236;5.712;2023-04-06T01:02:04;2.30;99.90
18260;DHT22;9256;52.236;5.712;2023-04-06T01:04:31;2.20;99.90
18260;DHT22;9256;52.236;5.712;2023-04-06T01:06:58;2.10;99.90
18260;DHT22;9256;52.236;5.712;2023-04-06T01:09:27;2.00;99.90
18260;DHT22;9256;52.236;5.712;2023-04-06T01:11:55;2.00;99.90
18260;DHT22;9256;52.236;5.712;2023-04-06T01:14:22;2.10;99.90
18260;DHT22;9256;52.236;5.712;2023-04-06T01:16:49;2.10;99.90
18260;DHT22;9256;52.236;5.712;2023-04-06T01:19:18;2.10;99.90
18260;DHT22;9256;52.236;5.712;2023-04-06T01:21:46;2.20;99.90
18260;DHT22;9256;52.236;5.712;2023-04-06T01:24:16;2.30;99.90
18260;DHT22;9256;52.236;5.712;2023-04-06T01:26:44;2.30;99.90
18260;DHT22;9256;52.236;5.712;2023-04-06T01:29:12;2.40;99.90
18260;DHT22;9256;52.236;5.712;2023-04-06T01:31:39;2.50;99.90
18260;DHT22;9256;52.236;5.712;2023-04-06T01:34:06;2.60;99.90
18260;DHT22;9256;52.236;5.712;2023-04-06T01:36:33;2.80;99.90
18260;DHT22;9256;52.236;5.712;2023-04-06T01:39:00;2.80;99.90
18260;DHT22;9256;52.236;5.712;2023-04-06T01:41:29;2.70;99.90
18260;DHT22;9256;52.236;5.712;2023-04-06T01:43:56;2.80;99.90
18260;DHT22;9256;52.236;5.712;2023-04-06T01:46:23;2.70;99.90
18260;DHT22;9256;52.236;5.712;2023-04-06T01:48:50;2.70;99.90
18260;DHT22;9256;52.236;5.712;2023-04-06T01:51:17;2.80;99.90
18260;DHT22;9256;52.236;5.712;2023-04-06T01:53:44;2.80;99.90
18260;DHT22;9256;52.236;5.712;2023-04-06T01:56:11;2.80;99.90
18260;DHT22;9256;52.236;5.712;2023-04-06T01:58:39;2.80;99.90
18260;DHT22;9256;52.236;5.712;2023-04-06T02:01:06;2.90;99.90
18260;DHT22;9256;52.236;5.712;2023-04-06T02:03:33;2.90;99.90
18260;DHT22;9256;52.236;5.712;2023-04-06T02:06:00;2.80;99.90
18260;DHT22;9256;52.236;5.712;2023-04-06T02:08:27;2.90;99.90
18260;DHT22;9256;52.236;5.712;2023-04-06T02:10:54;2.90;99.90
18260;DHT22;9256;52.236;5.712;2023-04-06T02:13:21;2.70;99.90
18260;DHT22;9256;52.236;5.712;2023-04-06T02:15:49;2.70;99.90
18260;DHT22;9256;52.236;5.712;2023-04-06T02:18:17;2.80;99.90
18260;DHT22;9256;52.236;5.712;2023-04-06T02:20:44;2.90;99.90
18260;DHT22;9256;52.236;5.712;2023-04-06T02:23:11;2.90;99.90
18260;DHT22;9256;52.236;5.712;2023-04-06T02:25:38;3.00;99.90
18260;DHT22;9256;52.236;5.712;2023-04-06T02:28:05;3.20;99.90
18260;DHT22;9256;52.236;5.712;2023-04-06T02:30:32;3.30;99.90
18260;DHT22;9256;52.236;5.712;2023-04-06T02:33:01;3.40;99.90
18260;DHT22;9256;52.236;5.712;2023-04-06T02:35:28;3.50;99.90
18260;DHT22;9256;52.236;5.712;2023-04-06T02:37:56;3.50;99.90
18260;DHT22;9256;52.236;5.712;2023-04-06T02:40:23;3.60;99.90
18260;DHT22;9256;52.236;5.712;2023-04-06T02:42:50;3.70;99.90
18260;DHT22;9256;52.236;5.712;2023-04-06T02:45:17;3.70;99.90
18260;DHT22;9256;52.236;5.712;2023-04-06T02:47:44;3.70;99.90
18260;DHT22;9256;52.236;5.712;2023-04-06T02:50:12;3.60;99.90
18260;DHT22;9256;52.236;5.712;2023-04-06T02:52:39;3.70;99.90
18260;DHT22;9256;52.236;5.712;2023-04-06T02:55:07;3.70;99.90
18260;DHT22;9256;52.236;5.712;2023-04-06T02:57:34;3.70;99.90
18260;DHT22;9256;52.236;5.712;2023-04-06T03:00:01;3.70;99.90
18260;DHT22;9256;52.236;5.712;2023-04-06T03:02:28;3.80;99.90
18260;DHT22;9256;52.236;5.712;2023-04-06T03:04:55;3.80;99.90
18260;DHT22;9256;52.236;5.712;2023-04-06T03:07:23;3.70;99.90
18260;DHT22;9256;52.236;5.712;2023-04-06T03:09:50;3.80;99.90
18260;DHT22;9256;52.236;5.712;2023-04-06T03:12:17;3.80;99.90
18260;DHT22;9256;52.236;5.712;2023-04-06T03:14:44;3.70;99.90
18260;DHT22;9256;52.236;5.712;2023-04-06T03:17:11;3.70;99.90
18260;DHT22;9256;52.236;5.712;2023-04-06T03:19:38;3.60;99.90
18260;DHT22;9256;52.236;5.712;2023-04-06T03:22:05;3.60;99.90
18260;DHT22;9256;52.236;5.712;2023-04-06T03:24:34;3.50;99.90
18260;DHT22;9256;52.236;5.712;2023-04-06T03:27:01;3.50;99.90
18260;DHT22;9256;52.236;5.712;2023-04-06T03:29:27;3.50;99.90
18260;DHT22;9256;52.236;5.712;2023-04-06T03:31:55;3.50;99.90
18260;DHT22;9256;52.236;5.712;2023-04-06T03:34:22;3.60;99.90
18260;DHT22;9256;52.236;5.712;2023-04-06T03:36:49;3.70;99.90
18260;DHT22;9256;52.236;5.712;2023-04-06T03:39:16;3.70;99.90
18260;DHT22;9256;52.236;5.712;2023-04-06T03:41:44;3.70;99.90
18260;DHT22;9256;52.236;5.712;2023-04-06T03:44:11;3.70;99.90
18260;DHT22;9256;52.236;5.712;2023-04-06T03:46:38;3.60;99.90
18260;DHT22;9256;52.236;5.712;2023-04-06T03:49:05;3.60;99.90
18260;DHT22;9256;52.236;5.712;2023-04-06T03:51:32;3.60;99.90
18260;DHT22;9256;52.236;5.712;2023-04-06T03:53:59;3.60;99.90
18260;DHT22;9256;52.236;5.712;2023-04-06T03:56:26;3.60;99.90
18260;DHT22;9256;52.236;5.712;2023-04-06T03:58:55;3.70;99.90
18260;DHT22;9256;52.236;5.712;2023-04-06T04:01:22;3.60;99.90
18260;DHT22;9256;52.236;5.712;2023-04-06T04:03:49;3.70;99.90
18260;DHT22;9256;52.236;5.712;2023-04-06T04:06:16;3.70;99.90
18260;DHT22;9256;52.236;5.712;2023-04-06T04:08:43;3.70;99.90
18260;DHT22;9256;52.236;5.712;2023-04-06T04:11:10;3.80;99.90
18260;DHT22;9256;52.236;5.712;2023-04-06T04:13:37;3.70;99.90
18260;DHT22;9256;52.236;5.712;2023-04-06T04:16:06;3.70;99.90
18260;DHT22;9256;52.236;5.712;2023-04-06T04:18:33;3.70;99.90
18260;DHT22;9256;52.236;5.712;2023-04-06T04:21:00;3.80;99.90
18260;DHT22;9256;52.236;5.712;2023-04-06T04:23:26;3.80;99.90
18260;DHT22;9256;52.236;5.712;2023-04-06T04:25:53;3.80;99.90
18260;DHT22;9256;52.236;5.712;2023-04-06T04:28:21;3.80;99.90
18260;DHT22;9256;52.236;5.712;2023-04-06T04:30:47;3.90;99.90
18260;DHT22;9256;52.236;5.712;2023-04-06T04:33:16;3.90;99.90
18260;DHT22;9256;52.236;5.712;2023-04-06T04:35:43;3.90;99.90
18260;DHT22;9256;52.236;5.712;2023-04-06T04:38:10;3.90;99.90
18260;DHT22;9256;52.236;5.712;2023-04-06T04:40:37;3.90;99.90
18260;DHT22;9256;52.236;5.712;2023-04-06T04:43:04;3.80;99.90
18260;DHT22;9256;52.236;5.712;2023-04-06T04:45:31;3.80;99.90
18260;DHT22;9256;52.236;5.712;2023-04-06T04:47:58;3.80;99.90
18260;DHT22;9256;52.236;5.712;2023-04-06T04:50:26;3.80;99.90
18260;DHT22;9256;52.236;5.712;2023-04-06T04:52:53;4.00;99.90
18260;DHT22;9256;52.236;5.712;2023-04-06T04:55:20;4.00;99.90
18260;DHT22;9256;52.236;5.712;2023-04-06T04:57:47;4.10;99.90
18260;DHT22;9256;52.236;5.712;2023-04-06T05:00:14;4.10;99.90
18260;DHT22;9256;52.236;5.712;2023-04-06T05:02:41;4.10;99.90
18260;DHT22;9256;52.236;5.712;2023-04-06T05:05:09;4.10;99.90
18260;DHT22;9256;52.236;5.712;2023-04-06T05:07:37;4.10;99.90
18260;DHT22;9256;52.236;5.712;2023-04-06T05:10:05;4.10;99.90
18260;DHT22;9256;52.236;5.712;2023-04-06T05:12:32;4.20;99.90
18260;DHT22;9256;52.236;5.712;2023-04-06T05:14:59;4.10;99.90
18260;DHT22;9256;52.236;5.712;2023-04-06T05:17:26;4.10;99.90
18260;DHT22;9256;52.236;5.712;2023-04-06T05:19:53;4.00;99.90
18260;DHT22;9256;52.236;5.712;2023-04-06T05:22:20;4.00;99.90
18260;DHT22;9256;52.236;5.712;2023-04-06T05:24:49;4.10;99.90
18260;DHT22;9256;52.236;5.712;2023-04-06T05:27:16;4.20;99.90
18260;DHT22;9256;52.236;5.712;2023-04-06T05:29:43;4.10;99.90
18260;DHT22;9256;52.236;5.712;2023-04-06T05:32:10;4.20;99.90
18260;DHT22;9256;52.236;5.712;2023-04-06T05:34:37;4.20;99.90
18260;DHT22;9256;52.236;5.712;2023-04-06T05:37:04;4.20;99.90
18260;DHT22;9256;52.236;5.712;2023-04-06T05:39:31;4.30;99.90
18260;DHT22;9256;52.236;5.712;2023-04-06T05:42:03;4.30;99.90
18260;DHT22;9256;52.236;5.712;2023-04-06T05:44:30;4.40;99.90
18260;DHT22;9256;52.236;5.712;2023-04-06T05:46:57;4.50;99.90
18260;DHT22;9256;52.236;5.712;2023-04-06T05:49:24;4.60;99.90
18260;DHT22;9256;52.236;5.712;2023-04-06T05:51:51;4.60;99.90
18260;DHT22;9256;52.236;5.712;2023-04-06T05:54:18;4.70;99.90
18260;DHT22;9256;52.236;5.712;2023-04-06T05:56:46;4.80;99.90
18260;DHT22;9256;52.236;5.712;2023-04-06T05:59:15;4.90;99.90
18260;DHT22;9256;52.236;5.712;2023-04-06T06:01:42;4.90;99.90
18260;DHT22;9256;52.236;5.712;2023-04-06T06:04:09;5.10;99.90
18260;DHT22;9256;52.236;5.712;2023-04-06T06:06:36;5.20;99.90
18260;DHT22;9256;52.236;5.712;2023-04-06T06:09:03;5.30;99.90
18260;DHT22;9256;52.236;5.712;2023-04-06T06:11:30;5.40;99.90
18260;DHT22;9256;52.236;5.712;2023-04-06T06:13:58;5.50;99.90
18260;DHT22;9256;52.236;5.712;2023-04-06T06:16:27;5.60;99.90
18260;DHT22;9256;52.236;5.712;2023-04-06T06:18:54;5.80;99.90
18260;DHT22;9256;52.236;5.712;2023-04-06T06:21:20;5.90;99.90
18260;DHT22;9256;52.236;5.712;2023-04-06T06:23:47;5.90;99.90
18260;DHT22;9256;52.236;5.712;2023-04-06T06:26:15;6.10;99.90
18260;DHT22;9256;52.236;5.712;2023-04-06T06:28:42;6.20;99.90
18260;DHT22;9256;52.236;5.712;2023-04-06T06:31:09;6.30;99.90
18260;DHT22;9256;52.236;5.712;2023-04-06T06:33:38;6.20;99.90
18260;DHT22;9256;52.236;5.712;2023-04-06T06:36:05;6.30;99.90
18260;DHT22;9256;52.236;5.712;2023-04-06T06:38:32;6.50;99.90
18260;DHT22;9256;52.236;5.712;2023-04-06T06:40:59;6.70;99.90
18260;DHT22;9256;52.236;5.712;2023-04-06T06:43:26;6.80;99.90
18260;DHT22;9256;52.236;5.712;2023-04-06T06:45:53;6.90;99.90
18260;DHT22;9256;52.236;5.712;2023-04-06T06:48:20;7.00;99.90
18260;DHT22;9256;52.236;5.712;2023-04-06T06:50:49;7.10;99.90
18260;DHT22;9256;52.236;5.712;2023-04-06T06:53:15;7.30;99.90
18260;DHT22;9256;52.236;5.712;2023-04-06T06:55:42;7.30;99.90
18260;DHT22;9256;52.236;5.712;2023-04-06T06:58:10;7.30;99.90
18260;DHT22;9256;52.236;5.712;2023-04-06T07:00:38;7.30;99.90
18260;DHT22;9256;52.236;5.712;2023-04-06T07:03:04;7.40;99.90
18260;DHT22;9256;52.236;5.712;2023-04-06T07:05:32;7.40;99.90
18260;DHT22;9256;52.236;5.712;2023-04-06T07:08:00;7.40;99.90
18260;DHT22;9256;52.236;5.712;2023-04-06T07:10:27;7.50;99.90
18260;DHT22;9256;52.236;5.712;2023-04-06T07:12:54;7.50;99.90
18260;DHT22;9256;52.236;5.712;2023-04-06T07:15:21;7.50;99.90
18260;DHT22;9256;52.236;5.712;2023-04-06T07:17:48;7.60;99.90
18260;DHT22;9256;52.236;5.712;2023-04-06T07:20:15;7.80;99.90
18260;DHT22;9256;52.236;5.712;2023-04-06T07:22:43;7.90;99.90
18260;DHT22;9256;52.236;5.712;2023-04-06T07:25:12;8.00;99.90
18260;DHT22;9256;52.236;5.712;2023-04-06T07:27:39;8.10;99.90
18260;DHT22;9256;52.236;5.712;2023-04-06T07:30:07;8.40;99.90
18260;DHT22;9256;52.236;5.712;2023-04-06T07:32:34;8.40;99.90
18260;DHT22;9256;52.236;5.712;2023-04-06T07:35:01;8.60;99.90
18260;DHT22;9256;52.236;5.712;2023-04-06T07:37:28;8.70;99.90
18260;DHT22;9256;52.236;5.712;2023-04-06T07:39:55;8.60;99.90
18260;DHT22;9256;52.236;5.712;2023-04-06T07:42:23;8.70;99.90
18260;DHT22;9256;52.236;5.712;2023-04-06T07:44:50;8.90;99.90
18260;DHT22;9256;52.236;5.712;2023-04-06T07:47:17;8.90;99.90
18260;DHT22;9256;52.236;5.712;2023-04-06T07:49:44;9.00;99.90
18260;DHT22;9256;52.236;5.712;2023-04-06T07:52:11;8.90;99.90
18260;DHT22;9256;52.236;5.712;2023-04-06T07:54:40;8.80;99.90
18260;DHT22;9256;52.236;5.712;2023-04-06T07:57:07;8.80;99.90
18260;DHT22;9256;52.236;5.712;2023-04-06T07:59:35;8.70;99.90
18260;DHT22;9256;52.236;5.712;2023-04-06T08:02:02;8.60;99.90
18260;DHT22;9256;52.236;5.712;2023-04-06T08:04:29;8.60;99.90
18260;DHT22;9256;52.236;5.712;2023-04-06T08:06:56;8.60;99.90
18260;DHT22;9256;52.236;5.712;2023-04-06T08:09:23;8.60;99.90
18260;DHT22;9256;52.236;5.712;2023-04-06T08:11:50;8.70;99.90
18260;DHT22;9256;52.236;5.712;2023-04-06T08:14:17;8.80;99.90
18260;DHT22;9256;52.236;5.712;2023-04-06T08:16:45;8.80;99.90
18260;DHT22;9256;52.236;5.712;2023-04-06T08:19:12;8.90;99.90
18260;DHT22;9256;52.236;5.712;2023-04-06T08:21:42;9.00;99.90
18260;DHT22;9256;52.236;5.712;2023-04-06T08:24:09;9.10;99.90
18260;DHT22;9256;52.236;5.712;2023-04-06T08:26:36;8.90;99.90
18260;DHT22;9256;52.236;5.712;2023-04-06T08:29:04;8.80;99.90
18260;DHT22;9256;52.236;5.712;2023-04-06T08:31:33;8.80;99.90
18260;DHT22;9256;52.236;5.712;2023-04-06T08:34:01;8.90;99.90
18260;DHT22;9256;52.236;5.712;2023-04-06T08:36:28;9.10;99.90
18260;DHT22;9256;52.236;5.712;2023-04-06T08:38:56;9.20;99.90
18260;DHT22;9256;52.236;5.712;2023-04-06T08:41:23;9.30;99.90
18260;DHT22;9256;52.236;5.712;2023-04-06T08:43:56;9.40;99.90
18260;DHT22;9256;52.236;5.712;2023-04-06T08:46:23;9.50;99.90
18260;DHT22;9256;52.236;5.712;2023-04-06T08:48:55;9.60;99.90
18260;DHT22;9256;52.236;5.712;2023-04-06T08:51:24;9.60;99.90
18260;DHT22;9256;52.236;5.712;2023-04-06T08:53:52;9.60;99.90
18260;DHT22;9256;52.236;5.712;2023-04-06T08:56:21;9.60;99.90
18260;DHT22;9256;52.236;5.712;2023-04-06T08:58:50;9.50;99.90
18260;DHT22;9256;52.236;5.712;2023-04-06T09:01:20;9.50;99.90
18260;DHT22;9256;52.236;5.712;2023-04-06T09:03:49;9.70;99.90
18260;DHT22;9256;52.236;5.712;2023-04-06T09:06:17;9.80;99.90
18260;DHT22;9256;52.236;5.712;2023-04-06T09:08:45;9.90;99.90
18260;DHT22;9256;52.236;5.712;2023-04-06T09:11:13;10.00;99.90
18260;DHT22;9256;52.236;5.712;2023-04-06T09:13:47;10.20;99.90
18260;DHT22;9256;52.236;5.712;2023-04-06T09:16:14;10.30;99.90
18260;DHT22;9256;52.236;5.712;2023-04-06T09:18:42;10.40;99.90
18260;DHT22;9256;52.236;5.712;2023-04-06T09:21:09;10.20;99.90
18260;DHT22;9256;52.236;5.712;2023-04-06T09:23:37;10.30;99.90
18260;DHT22;9256;52.236;5.712;2023-04-06T09:26:10;10.60;99.90
18260;DHT22;9256;52.236;5.712;2023-04-06T09:28:45;10.60;99.90
18260;DHT22;9256;52.236;5.712;2023-04-06T09:31:13;10.70;99.90
18260;DHT22;9256;52.236;5.712;2023-04-06T09:33:41;11.00;99.90
18260;DHT22;9256;52.236;5.712;2023-04-06T09:36:09;11.00;99.90
18260;DHT22;9256;52.236;5.712;2023-04-06T09:38:52;10.90;99.90
18260;DHT22;9256;52.236;5.712;2023-04-06T09:41:26;11.00;99.90
18260;DHT22;9256;52.236;5.712;2023-04-06T09:44:02;11.20;99.90
18260;DHT22;9256;52.236;5.712;2023-04-06T09:46:31;10.80;99.90
18260;DHT22;9256;52.236;5.712;2023-04-06T09:49:00;11.00;99.90
18260;DHT22;9256;52.236;5.712;2023-04-06T09:51:30;10.90;99.90
18260;DHT22;9256;52.236;5.712;2023-04-06T09:53:57;11.10;99.90
18260;DHT22;9256;52.236;5.712;2023-04-06T09:56:30;11.10;99.90
18260;DHT22;9256;52.236;5.712;2023-04-06T09:59:08;11.00;99.90
18260;DHT22;9256;52.236;5.712;2023-04-06T10:01:37;10.80;99.90
18260;DHT22;9256;52.236;5.712;2023-04-06T10:04:13;10.60;99.90
18260;DHT22;9256;52.236;5.712;2023-04-06T10:06:46;10.60;99.90
18260;DHT22;9256;52.236;5.712;2023-04-06T10:09:18;10.60;99.90
18260;DHT22;9256;52.236;5.712;2023-04-06T10:11:49;10.60;99.90
18260;DHT22;9256;52.236;5.712;2023-04-06T10:14:16;10.70;99.90
18260;DHT22;9256;52.236;5.712;2023-04-06T10:16:43;10.80;99.90
18260;DHT22;9256;52.236;5.712;2023-04-06T10:19:13;11.10;99.90
18260;DHT22;9256;52.236;5.712;2023-04-06T10:21:44;11.20;99.90
18260;DHT22;9256;52.236;5.712;2023-04-06T10:24:12;11.20;99.90
18260;DHT22;9256;52.236;5.712;2023-04-06T10:26:39;11.10;99.90
18260;DHT22;9256;52.236;5.712;2023-04-06T10:29:08;11.10;99.90
18260;DHT22;9256;52.236;5.712;2023-04-06T10:31:40;11.00;99.90
18260;DHT22;9256;52.236;5.712;2023-04-06T10:34:08;11.00;99.90
18260;DHT22;9256;52.236;5.712;2023-04-06T10:36:36;11.30;99.90
18260;DHT22;9256;52.236;5.712;2023-04-06T10:39:04;11.10;99.90
18260;DHT22;9256;52.236;5.712;2023-04-06T10:41:32;11.40;99.90
18260;DHT22;9256;52.236;5.712;2023-04-06T10:44:00;11.40;99.90
18260;DHT22;9256;52.236;5.712;2023-04-06T10:46:30;11.50;99.90
18260;DHT22;9256;52.236;5.712;2023-04-06T10:48:58;11.70;99.90
18260;DHT22;9256;52.236;5.712;2023-04-06T10:51:38;11.80;99.90
18260;DHT22;9256;52.236;5.712;2023-04-06T10:54:06;11.80;99.90
18260;DHT22;9256;52.236;5.712;2023-04-06T10:56:33;11.60;99.90
18260;DHT22;9256;52.236;5.712;2023-04-06T10:59:06;11.50;99.90
18260;DHT22;9256;52.236;5.712;2023-04-06T11:01:34;11.60;99.90
18260;DHT22;9256;52.236;5.712;2023-04-06T11:04:01;11.70;99.90
18260;DHT22;9256;52.236;5.712;2023-04-06T11:06:30;11.70;99.90
18260;DHT22;9256;52.236;5.712;2023-04-06T11:08:58;11.60;99.90
18260;DHT22;9256;52.236;5.712;2023-04-06T11:11:26;11.30;99.90
18260;DHT22;9256;52.236;5.712;2023-04-06T11:13:55;11.10;99.90
18260;DHT22;9256;52.236;5.712;2023-04-06T11:16:23;10.90;99.90
18260;DHT22;9256;52.236;5.712;2023-04-06T11:18:53;11.00;99.90
18260;DHT22;9256;52.236;5.712;2023-04-06T11:21:34;11.10;99.90
18260;DHT22;9256;52.236;5.712;2023-04-06T11:24:09;11.00;99.90
18260;DHT22;9256;52.236;5.712;2023-04-06T11:26:41;10.80;99.90
18260;DHT22;9256;52.236;5.712;2023-04-06T11:29:09;10.70;99.90
18260;DHT22;9256;52.236;5.712;2023-04-06T11:31:40;10.60;99.90
18260;DHT22;9256;52.236;5.712;2023-04-06T11:34:13;10.50;99.90
18260;DHT22;9256;52.236;5.712;2023-04-06T11:36:41;10.40;99.90
18260;DHT22;9256;52.236;5.712;2023-04-06T11:39:09;10.30;99.90
18260;DHT22;9256;52.236;5.712;2023-04-06T11:41:37;10.30;99.90
18260;DHT22;9256;52.236;5.712;2023-04-06T11:44:05;10.30;99.90
18260;DHT22;9256;52.236;5.712;2023-04-06T11:46:32;10.30;99.90
18260;DHT22;9256;52.236;5.712;2023-04-06T11:49:00;10.20;99.90
18260;DHT22;9256;52.236;5.712;2023-04-06T11:51:28;10.10;99.90
18260;DHT22;9256;52.236;5.712;2023-04-06T11:53:55;10.00;99.90
18260;DHT22;9256;52.236;5.712;2023-04-06T11:56:24;9.80;99.90
18260;DHT22;9256;52.236;5.712;2023-04-06T11:58:51;9.70;99.90
18260;DHT22;9256;52.236;5.712;2023-04-06T12:01:18;9.70;99.90
18260;DHT22;9256;52.236;5.712;2023-04-06T12:03:45;9.70;99.90
18260;DHT22;9256;52.236;5.712;2023-04-06T12:06:12;9.70;99.90
18260;DHT22;9256;52.236;5.712;2023-04-06T12:08:40;9.50;99.90
18260;DHT22;9256;52.236;5.712;2023-04-06T12:11:07;9.50;99.90
18260;DHT22;9256;52.236;5.712;2023-04-06T12:13:34;9.40;99.90
18260;DHT22;9256;52.236;5.712;2023-04-06T12:16:01;9.50;99.90
18260;DHT22;9256;52.236;5.712;2023-04-06T12:18:31;9.60;99.90
18260;DHT22;9256;52.236;5.712;2023-04-06T12:20:58;9.70;99.90
18260;DHT22;9256;52.236;5.712;2023-04-06T12:23:25;9.60;99.90
18260;DHT22;9256;52.236;5.712;2023-04-06T12:25:53;9.60;99.90
18260;DHT22;9256;52.236;5.712;2023-04-06T12:28:20;9.70;99.90
18260;DHT22;9256;52.236;5.712;2023-04-06T12:30:49;9.60;99.90
18260;DHT22;9256;52.236;5.712;2023-04-06T12:33:16;9.50;99.90
18260;DHT22;9256;52.236;5.712;2023-04-06T12:35:43;9.30;99.90
18260;DHT22;9256;52.236;5.712;2023-04-06T12:38:10;9.30;99.90
18260;DHT22;9256;52.236;5.712;2023-04-06T12:40:38;9.30;99.90
18260;DHT22;9256;52.236;5.712;2023-04-06T12:43:06;9.40;99.90
18260;DHT22;9256;52.236;5.712;2023-04-06T12:45:34;9.40;99.90
18260;DHT22;9256;52.236;5.712;2023-04-06T12:48:01;9.30;99.90
18260;DHT22;9256;52.236;5.712;2023-04-06T12:50:28;9.20;99.90
18260;DHT22;9256;52.236;5.712;2023-04-06T12:52:55;9.20;99.90
18260;DHT22;9256;52.236;5.712;2023-04-06T12:55:22;9.30;99.90
18260;DHT22;9256;52.236;5.712;2023-04-06T12:57:49;9.30;99.90
18260;DHT22;9256;52.236;5.712;2023-04-06T13:00:19;9.50;99.90
18260;DHT22;9256;52.236;5.712;2023-04-06T13:02:46;9.50;99.90
18260;DHT22;9256;52.236;5.712;2023-04-06T13:05:13;9.40;99.90
18260;DHT22;9256;52.236;5.712;2023-04-06T13:07:44;9.30;99.90
18260;DHT22;9256;52.236;5.712;2023-04-06T13:10:12;9.30;99.90
18260;DHT22;9256;52.236;5.712;2023-04-06T13:12:39;9.30;99.90
18260;DHT22;9256;52.236;5.712;2023-04-06T13:15:07;9.40;99.90
18260;DHT22;9256;52.236;5.712;2023-04-06T13:17:35;9.40;99.90
18260;DHT22;9256;52.236;5.712;2023-04-06T13:20:02;9.20;99.90
18260;DHT22;9256;52.236;5.712;2023-04-06T13:22:31;9.30;99.90
18260;DHT22;9256;52.236;5.712;2023-04-06T13:24:58;9.20;99.90
18260;DHT22;9256;52.236;5.712;2023-04-06T13:27:25;9.20;99.90
18260;DHT22;9256;52.236;5.712;2023-04-06T13:29:53;9.20;99.90
18260;DHT22;9256;52.236;5.712;2023-04-06T13:32:20;9.30;99.90
18260;DHT22;9256;52.236;5.712;2023-04-06T13:34:49;9.10;99.90
18260;DHT22;9256;52.236;5.712;2023-04-06T13:37:16;8.90;99.90
18260;DHT22;9256;52.236;5.712;2023-04-06T13:39:43;8.90;99.90
18260;DHT22;9256;52.236;5.712;2023-04-06T13:42:10;9.00;99.90
18260;DHT22;9256;52.236;5.712;2023-04-06T13:44:36;8.80;99.90
18260;DHT22;9256;52.236;5.712;2023-04-06T13:47:03;8.80;99.90
18260;DHT22;9256;52.236;5.712;2023-04-06T13:49:34;8.90;99.90
18260;DHT22;9256;52.236;5.712;2023-04-06T13:52:03;8.80;99.90
18260;DHT22;9256;52.236;5.712;2023-04-06T13:54:30;8.60;99.90
18260;DHT22;9256;52.236;5.712;2023-04-06T13:56:57;8.60;99.90
18260;DHT22;9256;52.236;5.712;2023-04-06T13:59:24;8.70;99.90
18260;DHT22;9256;52.236;5.712;2023-04-06T14:01:51;8.70;99.90
18260;DHT22;9256;52.236;5.712;2023-04-06T14:04:18;8.70;99.90
18260;DHT22;9256;52.236;5.712;2023-04-06T14:06:45;8.70;99.90
18260;DHT22;9256;52.236;5.712;2023-04-06T14:09:13;8.70;99.90
18260;DHT22;9256;52.236;5.712;2023-04-06T14:11:40;8.80;99.90
18260;DHT22;9256;52.236;5.712;2023-04-06T14:14:07;8.80;99.90
18260;DHT22;9256;52.236;5.712;2023-04-06T14:16:34;8.70;99.90
18260;DHT22;9256;52.236;5.712;2023-04-06T14:19:01;8.60;99.90
18260;DHT22;9256;52.236;5.712;2023-04-06T14:21:28;8.60;99.90
18260;DHT22;9256;52.236;5.712;2023-04-06T14:23:55;8.60;99.90
18260;DHT22;9256;52.236;5.712;2023-04-06T14:26:23;8.50;99.90
18260;DHT22;9256;52.236;5.712;2023-04-06T14:28:50;8.50;99.90
18260;DHT22;9256;52.236;5.712;2023-04-06T14:31:19;8.50;99.90
18260;DHT22;9256;52.236;5.712;2023-04-06T14:33:46;8.40;99.90
18260;DHT22;9256;52.236;5.712;2023-04-06T14:36:13;8.50;99.90
18260;DHT22;9256;52.236;5.712;2023-04-06T14:38:40;8.50;99.90
18260;DHT22;9256;52.236;5.712;2023-04-06T14:41:08;8.60;99.90
18260;DHT22;9256;52.236;5.712;2023-04-06T14:43:42;8.50;99.90
18260;DHT22;9256;52.236;5.712;2023-04-06T14:46:09;8.60;99.90
18260;DHT22;9256;52.236;5.712;2023-04-06T14:48:36;8.60;99.90
18260;DHT22;9256;52.236;5.712;2023-04-06T14:51:03;8.60;99.90
18260;DHT22;9256;52.236;5.712;2023-04-06T14:53:30;8.50;99.90
18260;DHT22;9256;52.236;5.712;2023-04-06T14:55:57;8.40;99.90
18260;DHT22;9256;52.236;5.712;2023-04-06T14:58:25;8.40;99.90
18260;DHT22;9256;52.236;5.712;2023-04-06T15:00:57;8.40;99.90
18260;DHT22;9256;52.236;5.712;2023-04-06T15:03:24;8.30;99.90
18260;DHT22;9256;52.236;5.712;2023-04-06T15:05:51;8.30;99.90
18260;DHT22;9256;52.236;5.712;2023-04-06T15:08:18;8.30;99.90
18260;DHT22;9256;52.236;5.712;2023-04-06T15:10:47;8.40;99.90
18260;DHT22;9256;52.236;5.712;2023-04-06T15:13:14;8.40;99.90
18260;DHT22;9256;52.236;5.712;2023-04-06T15:15:41;8.30;99.90
18260;DHT22;9256;52.236;5.712;2023-04-06T15:18:10;8.30;99.90
18260;DHT22;9256;52.236;5.712;2023-04-06T15:20:37;8.20;99.90
18260;DHT22;9256;52.236;5.712;2023-04-06T15:23:04;8.20;99.90
18260;DHT22;9256;52.236;5.712;2023-04-06T15:25:31;8.20;99.90
18260;DHT22;9256;52.236;5.712;2023-04-06T15:27:58;8.20;99.90
18260;DHT22;9256;52.236;5.712;2023-04-06T15:30:25;8.10;99.90
18260;DHT22;9256;52.236;5.712;2023-04-06T15:32:54;8.10;99.90
18260;DHT22;9256;52.236;5.712;2023-04-06T15:35:23;8.20;99.90
18260;DHT22;9256;52.236;5.712;2023-04-06T15:37:52;8.30;99.90
18260;DHT22;9256;52.236;5.712;2023-04-06T15:40:19;8.30;99.90
18260;DHT22;9256;52.236;5.712;2023-04-06T15:42:46;8.20;99.90
18260;DHT22;9256;52.236;5.712;2023-04-06T15:45:13;8.20;99.90
18260;DHT22;9256;52.236;5.712;2023-04-06T15:47:42;8.30;99.90
18260;DHT22;9256;52.236;5.712;2023-04-06T15:50:10;8.20;99.90
18260;DHT22;9256;52.236;5.712;2023-04-06T15:52:38;8.10;99.90
18260;DHT22;9256;52.236;5.712;2023-04-06T15:55:07;8.10;99.90
18260;DHT22;9256;52.236;5.712;2023-04-06T15:57:34;8.10;99.90
18260;DHT22;9256;52.236;5.712;2023-04-06T16:00:01;8.10;99.90
18260;DHT22;9256;52.236;5.712;2023-04-06T16:02:29;8.10;99.90